Time;durP1;ratioP1;P1;durP2;ratioP2;P2;SDS_P1;SDS_P2;PMS_P1;PMS_P2;Temp;Humidity;BMP_temperature;BMP_pressure;BME280_temperature;BME280_humidity;BME280_pressure;Samples;Min_cycle;Max_cycle;Signal;HPM_P1;HPM_P2
2022/04/30 00:02:21;;;;;;;6.70;3.55;;;8.40;99.90;;;;;;5022031;28;20154;-75
2022/04/30 00:04:48;;;;;;;13.63;3.00;;;8.40;99.90;;;;;;5007481;28;20037;-71
2022/04/30 00:07:17;;;;;;;7.65;3.80;;;8.40;99.90;;;;;;5020975;28;20043;-71
2022/04/30 00:09:44;;;;;;;10.52;3.63;;;8.40;99.90;;;;;;4995339;28;20447;-76
2022/04/30 00:12:10;;;;;;;11.77;3.92;;;8.30;99.90;;;;;;5012532;28;20033;-73
2022/04/30 00:14:37;;;;;;;6.35;3.38;;;8.30;99.90;;;;;;5029455;28;20029;-75
2022/04/30 00:17:04;;;;;;;9.60;3.95;;;8.30;99.90;;;;;;5028655;28;20033;-75
2022/04/30 00:19:30;;;;;;;6.18;3.78;;;8.30;99.90;;;;;;5028440;28;20038;-74
2022/04/30 00:21:56;;;;;;;9.73;4.05;;;8.20;99.90;;;;;;5012471;28;20033;-74
2022/04/30 00:24:26;;;;;;;9.43;3.92;;;8.20;99.90;;;;;;5028505;28;20038;-71
2022/04/30 00:26:52;;;;;;;9.00;4.18;;;8.20;99.90;;;;;;5024844;28;20038;-71
2022/04/30 00:29:18;;;;;;;8.88;4.63;;;8.20;99.90;;;;;;5027503;28;20061;-75
2022/04/30 00:31:45;;;;;;;11.32;4.38;;;8.20;99.90;;;;;;5027322;28;20071;-75
2022/04/30 00:34:11;;;;;;;9.25;4.03;;;8.20;99.90;;;;;;5026892;28;20404;-71
2022/04/30 00:36:38;;;;;;;9.52;3.90;;;8.10;99.90;;;;;;4995035;28;20033;-78
2022/04/30 00:39:04;;;;;;;6.25;3.75;;;8.10;99.90;;;;;;5015326;28;20033;-73
2022/04/30 00:41:32;;;;;;;7.43;4.10;;;8.10;99.90;;;;;;5009910;28;20639;-70
2022/04/30 00:43:59;;;;;;;10.02;4.05;;;8.00;99.90;;;;;;5025804;28;20060;-71
2022/04/30 00:46:26;;;;;;;6.32;3.80;;;8.10;99.90;;;;;;5026129;28;20062;-71
2022/04/30 00:48:53;;;;;;;12.15;5.22;;;8.00;99.90;;;;;;5025857;28;20029;-71
2022/04/30 00:51:20;;;;;;;9.00;4.78;;;8.00;99.90;;;;;;5024952;28;20033;-76
2022/04/30 00:53:51;;;;;;;8.13;4.53;;;8.00;99.90;;;;;;5013802;28;20492;-75
2022/04/30 00:56:32;;;;;;;13.85;4.53;;;8.00;99.90;;;;;;5028623;28;20045;-75
2022/04/30 00:59:05;;;;;;;8.85;4.63;;;7.90;99.90;;;;;;5011742;28;20029;-75
2022/04/30 01:01:35;;;;;;;12.32;5.35;;;7.90;99.90;;;;;;5011272;28;20025;-74
2022/04/30 01:04:01;;;;;;;11.77;5.22;;;7.90;99.90;;;;;;5012638;28;20112;-75
2022/04/30 01:06:52;;;;;;;8.02;4.63;;;7.90;99.90;;;;;;4995821;28;20110;-78
2022/04/30 01:09:28;;;;;;;10.63;5.57;;;7.90;99.90;;;;;;5030714;28;20076;-76
2022/04/30 01:12:08;;;;;;;10.27;5.75;;;7.90;99.90;;;;;;5012076;28;20030;-75
2022/04/30 01:14:36;;;;;;;9.00;6.28;;;7.80;99.90;;;;;;5026739;28;20045;-75
2022/04/30 01:17:05;;;;;;;10.60;5.82;;;7.70;99.90;;;;;;5014006;28;20107;-71
2022/04/30 01:19:36;;;;;;;10.20;6.00;;;7.60;99.90;;;;;;5028024;28;20064;-71
2022/04/30 01:22:08;;;;;;;13.23;6.45;;;7.60;99.90;;;;;;5025499;28;20108;-71
2022/04/30 01:24:36;;;;;;;13.20;6.05;;;7.70;99.90;;;;;;5006853;28;20092;-71
2022/04/30 01:27:04;;;;;;;14.55;6.57;;;7.60;99.90;;;;;;5017998;28;20505;-70
2022/04/30 01:29:30;;;;;;;11.63;5.78;;;7.60;99.90;;;;;;4989797;28;20040;-71
2022/04/30 01:37:29;;;;;;;15.20;6.22;;;7.60;99.90;;;;;;5023542;28;20028;-75
2022/04/30 01:39:59;;;;;;;10.23;6.00;;;7.60;99.90;;;;;;5006298;28;20037;-75
2022/04/30 01:42:31;;;;;;;15.95;6.88;;;7.60;99.90;;;;;;5018279;28;20029;-75
2022/04/30 01:44:58;;;;;;;9.88;6.10;;;7.60;99.90;;;;;;4996038;28;20090;-71
2022/04/30 01:47:26;;;;;;;14.20;7.13;;;7.50;99.90;;;;;;5009184;28;20439;-79
2022/04/30 01:49:52;;;;;;;11.20;6.22;;;7.50;99.90;;;;;;5011383;28;20120;-76
2022/04/30 01:52:18;;;;;;;9.20;6.25;;;7.50;99.90;;;;;;5023226;28;20033;-75
2022/04/30 01:54:44;;;;;;;12.88;6.97;;;7.50;99.90;;;;;;5007437;28;20033;-71
2022/04/30 01:57:10;;;;;;;12.65;7.38;;;7.40;99.90;;;;;;5023782;28;20025;-71
2022/04/30 01:59:36;;;;;;;10.65;7.10;;;7.30;99.90;;;;;;5023864;28;20052;-75
2022/04/30 02:02:03;;;;;;;12.15;6.65;;;7.30;99.90;;;;;;5022995;28;20541;-75
2022/04/30 02:04:30;;;;;;;13.27;7.00;;;7.30;99.90;;;;;;5011005;28;20404;-75
2022/04/30 02:06:59;;;;;;;10.52;5.93;;;7.40;99.90;;;;;;5027298;28;20075;-78
2022/04/30 02:09:28;;;;;;;12.70;7.55;;;7.30;99.90;;;;;;4999124;28;20033;-78
2022/04/30 02:11:59;;;;;;;15.63;7.18;;;7.40;99.90;;;;;;5004419;28;20021;-75
2022/04/30 02:14:30;;;;;;;15.73;7.22;;;7.50;99.90;;;;;;5006787;28;20032;-75
2022/04/30 02:16:58;;;;;;;12.05;6.72;;;7.50;99.90;;;;;;5007190;28;20293;-75
2022/04/30 02:19:27;;;;;;;11.98;6.95;;;7.50;99.90;;;;;;5024410;28;20032;-75
2022/04/30 02:21:58;;;;;;;11.73;6.55;;;7.50;99.90;;;;;;4990942;28;20025;-75
2022/04/30 02:24:27;;;;;;;11.35;6.47;;;7.40;99.90;;;;;;5006621;28;20037;-75
2022/04/30 02:26:54;;;;;;;10.85;6.93;;;7.40;99.90;;;;;;5024599;28;20049;-77
2022/04/30 02:29:20;;;;;;;12.00;7.10;;;7.30;99.90;;;;;;5008283;28;20052;-74
2022/04/30 02:31:47;;;;;;;10.52;6.68;;;7.30;99.90;;;;;;5004506;28;20109;-74
2022/04/30 02:34:12;;;;;;;13.13;7.22;;;7.30;99.90;;;;;;5025597;28;20030;-75
2022/04/30 02:36:38;;;;;;;11.13;6.45;;;7.30;99.90;;;;;;5000570;28;20508;-69
2022/04/30 02:39:05;;;;;;;12.93;7.43;;;7.30;99.90;;;;;;5005746;28;20045;-70
2022/04/30 02:41:31;;;;;;;9.60;6.20;;;7.30;99.90;;;;;;5020162;28;20028;-75
2022/04/30 02:43:58;;;;;;;16.75;6.93;;;7.30;99.90;;;;;;5023682;28;20048;-71
2022/04/30 02:46:24;;;;;;;12.23;6.63;;;7.30;99.90;;;;;;4986195;28;20386;-77
2022/04/30 02:48:50;;;;;;;12.20;6.72;;;7.30;99.90;;;;;;5026875;28;20090;-74
2022/04/30 02:51:16;;;;;;;10.63;6.20;;;7.30;99.90;;;;;;5022168;28;20030;-75
2022/04/30 02:53:43;;;;;;;14.18;7.07;;;7.30;99.90;;;;;;5023049;28;20022;-70
2022/04/30 02:56:12;;;;;;;12.25;6.55;;;7.30;99.90;;;;;;5024155;28;20055;-74
2022/04/30 03:01:22;;;;;;;7.55;5.10;;;7.30;99.90;;;;;;5020505;28;20078;-70
2022/04/30 03:03:48;;;;;;;8.85;5.88;;;7.20;99.90;;;;;;5025940;28;20435;-70
2022/04/30 03:06:16;;;;;;;14.82;6.47;;;7.20;99.90;;;;;;5022697;28;20033;-74
2022/04/30 03:08:46;;;;;;;12.20;6.90;;;7.20;99.90;;;;;;5009714;28;20109;-75
2022/04/30 03:11:12;;;;;;;11.18;5.95;;;7.20;99.90;;;;;;5005950;28;20032;-74
2022/04/30 03:13:38;;;;;;;10.55;6.07;;;7.20;99.90;;;;;;5008730;28;20026;-69
2022/04/30 03:21:42;;;;;;;11.48;6.97;;;7.20;99.90;;;;;;5021912;28;20127;-70
2022/04/30 03:24:09;;;;;;;12.13;6.72;;;7.10;99.90;;;;;;5006379;28;20036;-70
2022/04/30 03:26:34;;;;;;;14.38;6.85;;;7.10;99.90;;;;;;5025656;28;20055;-70
2022/04/30 03:29:00;;;;;;;12.88;6.68;;;7.10;99.90;;;;;;5024301;28;20498;-70
2022/04/30 03:31:26;;;;;;;9.43;6.15;;;7.10;99.90;;;;;;4999761;28;20079;-70
2022/04/30 03:33:52;;;;;;;10.07;5.65;;;7.10;99.90;;;;;;5025942;28;20021;-74
2022/04/30 03:36:18;;;;;;;14.57;6.85;;;7.10;99.90;;;;;;5008304;28;20028;-74
2022/04/30 03:38:45;;;;;;;10.38;5.90;;;7.10;99.90;;;;;;5010961;28;20151;-74
2022/04/30 03:41:11;;;;;;;8.68;6.00;;;7.10;99.90;;;;;;4991533;28;20518;-75
2022/04/30 03:43:37;;;;;;;10.48;5.78;;;7.10;99.90;;;;;;4997541;28;20032;-75
2022/04/30 03:46:04;;;;;;;10.23;5.93;;;7.10;99.90;;;;;;4990967;28;20434;-76
2022/04/30 03:48:29;;;;;;;7.85;5.22;;;7.10;99.90;;;;;;5007786;28;20101;-74
2022/04/30 03:50:57;;;;;;;12.10;5.93;;;7.10;99.90;;;;;;4995473;28;20463;-75
2022/04/30 03:53:23;;;;;;;10.05;5.85;;;7.10;99.90;;;;;;4996091;28;20029;-75
2022/04/30 03:55:49;;;;;;;11.48;6.32;;;7.10;99.90;;;;;;4997730;28;20033;-78
2022/04/30 03:58:14;;;;;;;10.95;5.75;;;7.10;99.90;;;;;;5012421;28;20379;-74
2022/04/30 04:00:40;;;;;;;11.77;5.70;;;7.10;99.90;;;;;;5007248;28;20702;-75
2022/04/30 04:03:06;;;;;;;8.73;5.13;;;7.10;99.90;;;;;;4988616;28;20087;-76
2022/04/30 04:05:33;;;;;;;7.75;4.85;;;7.10;99.90;;;;;;4994253;28;20143;-75
2022/04/30 04:07:59;;;;;;;8.40;5.05;;;7.10;99.90;;;;;;5011371;28;20036;-75
2022/04/30 04:10:25;;;;;;;9.55;5.43;;;7.10;99.90;;;;;;5007941;28;20034;-74
2022/04/30 04:12:50;;;;;;;10.00;5.72;;;7.10;99.90;;;;;;5011513;28;20033;-76
2022/04/30 04:18:00;;;;;;;7.75;5.05;;;7.10;99.90;;;;;;5024962;28;20048;-75
2022/04/30 04:20:26;;;;;;;9.02;5.57;;;7.10;99.90;;;;;;5009012;28;20065;-76
2022/04/30 04:22:53;;;;;;;9.20;5.05;;;7.20;99.90;;;;;;5006832;28;20103;-78
2022/04/30 04:28:03;;;;;;;9.43;5.05;;;7.20;99.90;;;;;;5026910;28;20117;-75
2022/04/30 04:30:30;;;;;;;8.45;4.53;;;7.20;99.90;;;;;;5006259;28;20037;-76
2022/04/30 04:32:58;;;;;;;7.80;5.13;;;7.20;99.90;;;;;;4993389;28;20067;-75
2022/04/30 04:35:24;;;;;;;9.40;4.93;;;7.30;99.90;;;;;;5011520;28;20944;-75
2022/04/30 04:37:50;;;;;;;14.30;5.82;;;7.30;99.90;;;;;;4987160;28;20087;-76
2022/04/30 04:40:16;;;;;;;11.07;5.85;;;7.30;99.90;;;;;;5012207;28;20523;-75
2022/04/30 04:42:43;;;;;;;9.65;4.82;;;7.30;99.90;;;;;;4993629;28;20358;-75
2022/04/30 04:45:09;;;;;;;10.82;5.10;;;7.30;99.90;;;;;;5010210;28;20037;-75
2022/04/30 04:47:39;;;;;;;6.93;4.78;;;7.30;99.90;;;;;;4997483;28;20036;-75
2022/04/30 04:50:07;;;;;;;8.88;4.88;;;7.30;99.90;;;;;;4993690;28;20033;-75
2022/04/30 04:52:32;;;;;;;9.63;4.80;;;7.30;99.90;;;;;;5025534;28;20033;-77
2022/04/30 04:54:58;;;;;;;7.22;4.40;;;7.30;99.90;;;;;;5010103;28;20021;-75
2022/04/30 04:57:24;;;;;;;9.60;3.97;;;7.40;99.90;;;;;;4993385;28;20290;-75
2022/04/30 04:59:51;;;;;;;8.07;5.20;;;7.40;99.90;;;;;;4993997;28;20115;-76
2022/04/30 05:02:17;;;;;;;11.52;5.57;;;7.40;99.90;;;;;;4991108;28;20196;-76
2022/04/30 05:04:43;;;;;;;7.20;4.15;;;7.40;99.90;;;;;;5026577;28;20041;-76
2022/04/30 05:07:08;;;;;;;9.43;4.97;;;7.40;99.90;;;;;;5008440;28;20138;-77
2022/04/30 05:09:34;;;;;;;8.75;4.05;;;7.40;99.90;;;;;;4985580;28;20031;-75
2022/04/30 05:12:03;;;;;;;5.22;3.60;;;7.50;99.90;;;;;;5026925;28;20124;-75
2022/04/30 05:14:32;;;;;;;7.15;3.85;;;7.50;99.90;;;;;;5025365;28;20037;-77
2022/04/30 05:16:59;;;;;;;9.85;3.88;;;7.50;99.90;;;;;;5024086;28;20106;-76
2022/04/30 05:19:25;;;;;;;9.82;4.28;;;7.50;99.90;;;;;;5010642;28;20084;-75
2022/04/30 05:21:51;;;;;;;7.85;4.30;;;7.50;99.90;;;;;;5012322;28;20129;-75
2022/04/30 05:24:16;;;;;;;6.20;3.90;;;7.60;99.90;;;;;;4992519;28;20342;-75
2022/04/30 05:26:42;;;;;;;8.82;4.13;;;8.00;99.90;;;;;;5007534;28;20059;-75
2022/04/30 05:29:08;;;;;;;7.13;4.03;;;8.30;99.90;;;;;;5009660;28;20334;-71
2022/04/30 05:31:33;;;;;;;8.20;3.75;;;8.40;99.90;;;;;;5022422;28;20034;-70
2022/04/30 05:33:59;;;;;;;5.72;3.70;;;8.30;99.90;;;;;;5012260;28;20612;-71
2022/04/30 05:36:27;;;;;;;8.02;4.40;;;8.20;99.90;;;;;;5010265;28;20523;-71
2022/04/30 05:38:52;;;;;;;8.23;3.60;;;8.20;99.90;;;;;;5013541;28;20040;-71
2022/04/30 05:41:19;;;;;;;8.43;4.03;;;8.10;99.90;;;;;;5026731;28;20041;-75
2022/04/30 05:43:45;;;;;;;5.60;3.72;;;8.10;99.90;;;;;;5010747;28;20473;-75
2022/04/30 05:46:12;;;;;;;6.40;4.20;;;8.00;99.90;;;;;;5025513;28;20037;-75
2022/04/30 05:48:37;;;;;;;8.95;3.75;;;8.10;99.90;;;;;;5028456;28;20041;-75
2022/04/30 05:51:04;;;;;;;6.43;3.17;;;8.10;99.90;;;;;;5009411;28;20033;-75
2022/04/30 05:53:30;;;;;;;7.00;3.85;;;8.10;99.90;;;;;;5011998;28;20033;-76
2022/04/30 05:55:55;;;;;;;8.38;4.07;;;8.10;99.90;;;;;;5010151;28;20033;-75
2022/04/30 05:58:21;;;;;;;8.32;3.95;;;8.10;99.90;;;;;;5028603;28;20041;-75
2022/04/30 06:00:47;;;;;;;8.38;3.80;;;8.10;99.90;;;;;;5021725;28;20037;-77
2022/04/30 06:03:12;;;;;;;7.47;4.30;;;8.20;99.90;;;;;;5010262;28;20037;-75
2022/04/30 06:05:38;;;;;;;6.28;3.80;;;8.20;99.90;;;;;;5022618;28;20100;-75
2022/04/30 06:08:05;;;;;;;9.25;3.65;;;8.20;99.90;;;;;;4991257;28;20555;-75
2022/04/30 06:10:31;;;;;;;8.68;3.70;;;8.20;99.90;;;;;;5029922;28;20057;-75
2022/04/30 06:12:57;;;;;;;6.07;3.60;;;8.20;99.90;;;;;;5029178;28;20061;-76
2022/04/30 06:15:23;;;;;;;7.68;3.25;;;8.30;99.90;;;;;;5025665;28;20025;-75
2022/04/30 06:17:49;;;;;;;4.80;3.15;;;8.40;99.90;;;;;;5011931;28;20021;-74
2022/04/30 06:20:15;;;;;;;5.70;3.90;;;8.40;99.90;;;;;;4991374;28;20087;-75
2022/04/30 06:22:44;;;;;;;5.80;3.35;;;8.50;99.90;;;;;;5010866;28;20030;-76
2022/04/30 06:25:11;;;;;;;7.72;3.00;;;8.60;99.90;;;;;;5003867;28;20055;-76
2022/04/30 06:27:37;;;;;;;5.32;3.17;;;8.60;99.90;;;;;;5007189;28;20048;-74
2022/04/30 06:30:04;;;;;;;6.50;3.70;;;8.70;99.90;;;;;;5024486;28;20143;-75
2022/04/30 06:32:30;;;;;;;6.60;3.40;;;8.80;99.90;;;;;;5027393;28;20040;-74
2022/04/30 06:34:56;;;;;;;7.10;4.18;;;8.80;99.90;;;;;;5005600;28;20025;-75
2022/04/30 06:37:22;;;;;;;5.90;3.15;;;8.80;99.90;;;;;;5008846;28;20030;-75
2022/04/30 06:39:47;;;;;;;5.97;3.05;;;8.90;99.90;;;;;;4992266;28;20025;-79
2022/04/30 06:42:13;;;;;;;6.68;3.30;;;8.90;99.90;;;;;;5025143;28;20041;-76
2022/04/30 06:44:39;;;;;;;8.02;3.25;;;9.00;99.90;;;;;;5009616;28;20033;-74
2022/04/30 06:47:05;;;;;;;7.78;3.10;;;9.00;99.90;;;;;;5003810;28;20574;-74
2022/04/30 06:49:30;;;;;;;6.05;2.70;;;9.00;99.90;;;;;;5009761;28;20494;-75
2022/04/30 06:51:56;;;;;;;6.47;3.10;;;9.10;99.90;;;;;;5003797;28;20026;-75
2022/04/30 06:57:08;;;;;;;5.90;2.92;;;9.10;99.90;;;;;;5025974;28;20029;-76
2022/04/30 06:59:41;;;;;;;6.47;2.50;;;9.10;99.90;;;;;;4993114;28;20175;-75
2022/04/30 07:02:12;;;;;;;4.75;2.92;;;9.20;99.90;;;;;;5010660;28;20037;-75
2022/04/30 07:04:42;;;;;;;6.55;2.65;;;9.20;99.90;;;;;;5004856;28;20036;-74
2022/04/30 07:07:09;;;;;;;6.65;3.10;;;9.30;99.90;;;;;;5002258;28;20040;-75
2022/04/30 07:09:36;;;;;;;4.68;2.97;;;9.30;99.90;;;;;;5002187;28;20056;-75
2022/04/30 07:12:07;;;;;;;7.55;3.00;;;9.40;99.90;;;;;;5023818;28;20105;-74
2022/04/30 07:14:40;;;;;;;6.97;2.80;;;9.40;99.90;;;;;;4992382;28;20060;-76
2022/04/30 07:17:11;;;;;;;5.13;2.70;;;9.50;99.90;;;;;;5022572;28;20041;-71
2022/04/30 07:19:36;;;;;;;4.15;2.50;;;9.50;99.90;;;;;;5021903;28;20124;-71
2022/04/30 07:22:03;;;;;;;8.43;2.70;;;9.50;99.90;;;;;;5003514;28;20570;-71
2022/04/30 07:24:31;;;;;;;6.00;3.40;;;9.60;99.90;;;;;;5004326;28;20120;-72
2022/04/30 07:26:57;;;;;;;3.88;2.53;;;9.60;99.90;;;;;;5022117;28;20033;-71
2022/04/30 07:29:23;;;;;;;4.97;2.65;;;9.70;99.90;;;;;;4995508;28;20061;-71
2022/04/30 07:31:49;;;;;;;5.35;2.42;;;9.70;99.90;;;;;;4997505;28;20033;-71
2022/04/30 07:34:14;;;;;;;5.60;2.40;;;9.80;99.90;;;;;;5021489;28;20175;-70
2022/04/30 07:36:41;;;;;;;3.40;2.30;;;9.80;99.90;;;;;;5004534;28;20136;-75
2022/04/30 07:39:07;;;;;;;5.40;2.75;;;9.90;99.90;;;;;;5008524;28;20037;-71
2022/04/30 07:41:33;;;;;;;7.53;3.00;;;9.90;99.90;;;;;;5009624;28;20022;-75
2022/04/30 07:43:59;;;;;;;4.18;2.58;;;10.00;99.90;;;;;;5024544;28;20033;-74
2022/04/30 07:46:25;;;;;;;5.40;2.58;;;10.00;99.90;;;;;;5027088;28;20034;-71
2022/04/30 07:48:51;;;;;;;5.55;2.55;;;10.00;99.90;;;;;;5021815;28;20568;-75
2022/04/30 07:51:33;;;;;;;6.35;3.75;;;10.10;99.90;;;;;;5025677;28;20033;-74
2022/04/30 07:54:04;;;;;;;3.63;2.33;;;10.10;99.90;;;;;;5025232;28;20029;-75
2022/04/30 07:56:30;;;;;;;5.78;2.60;;;10.20;99.90;;;;;;5009913;28;20026;-75
2022/04/30 07:58:56;;;;;;;5.03;2.88;;;10.20;99.90;;;;;;5025613;28;20045;-74
2022/04/30 08:01:22;;;;;;;5.55;2.30;;;10.30;99.90;;;;;;5008168;28;20085;-75
2022/04/30 08:03:48;;;;;;;4.38;2.45;;;10.30;99.90;;;;;;5007472;28;20032;-71
2022/04/30 08:06:14;;;;;;;4.43;2.30;;;10.40;99.90;;;;;;5005465;28;20025;-75
2022/04/30 08:08:40;;;;;;;4.45;2.35;;;10.50;99.90;;;;;;5007202;28;20048;-75
2022/04/30 08:11:06;;;;;;;4.78;2.50;;;10.50;99.90;;;;;;5008371;28;20500;-74
2022/04/30 08:13:32;;;;;;;3.50;1.90;;;10.60;99.90;;;;;;5028171;28;20038;-75
2022/04/30 08:15:57;;;;;;;6.45;2.60;;;10.60;99.90;;;;;;5025487;28;20031;-74
2022/04/30 08:18:26;;;;;;;8.98;3.15;;;10.70;99.90;;;;;;5020666;28;20035;-74
2022/04/30 08:20:52;;;;;;;5.38;2.47;;;10.70;99.90;;;;;;5013793;28;20042;-71
2022/04/30 08:23:18;;;;;;;4.05;2.97;;;10.80;99.90;;;;;;5018002;28;20375;-71
2022/04/30 08:25:44;;;;;;;4.47;2.10;;;10.80;99.90;;;;;;4987351;28;20033;-71
2022/04/30 08:28:10;;;;;;;4.00;2.28;;;10.90;99.90;;;;;;5004505;28;20109;-71
2022/04/30 08:30:35;;;;;;;3.90;1.98;;;11.00;99.90;;;;;;4993148;28;20608;-74
2022/04/30 08:33:01;;;;;;;4.28;2.25;;;11.10;99.90;;;;;;5009370;28;20034;-75
2022/04/30 08:35:27;;;;;;;3.25;1.80;;;11.10;99.90;;;;;;5011517;28;20101;-74
2022/04/30 08:37:53;;;;;;;2.78;1.40;;;11.20;99.90;;;;;;5022639;28;20220;-74
2022/04/30 08:40:19;;;;;;;3.75;1.70;;;11.20;99.90;;;;;;5007036;28;20031;-75
2022/04/30 08:42:46;;;;;;;2.92;1.80;;;11.30;99.90;;;;;;5004126;28;20037;-75
2022/04/30 08:45:11;;;;;;;5.18;2.33;;;11.40;99.80;;;;;;5000286;28;20025;-75
2022/04/30 08:47:42;;;;;;;4.03;1.70;;;11.50;99.10;;;;;;5012598;28;20040;-71
2022/04/30 08:50:14;;;;;;;5.82;1.90;;;11.50;98.30;;;;;;5003701;28;20044;-71
2022/04/30 08:52:40;;;;;;;3.58;1.40;;;11.50;97.80;;;;;;4993429;28;20453;-70
2022/04/30 08:55:08;;;;;;;4.63;1.42;;;11.60;96.30;;;;;;5027381;28;20037;-74
2022/04/30 08:57:34;;;;;;;5.72;1.85;;;11.70;96.60;;;;;;5007726;28;20439;-74
2022/04/30 08:59:59;;;;;;;4.13;1.52;;;11.70;96.00;;;;;;5012787;28;20041;-74
2022/04/30 09:02:26;;;;;;;4.63;1.55;;;11.80;95.60;;;;;;5006838;28;20401;-70
2022/04/30 09:04:51;;;;;;;5.15;2.03;;;11.80;94.70;;;;;;5007034;28;20072;-74
2022/04/30 09:07:21;;;;;;;3.72;2.28;;;11.90;94.90;;;;;;5008668;28;20113;-76
2022/04/30 09:09:58;;;;;;;2.53;1.67;;;12.00;95.20;;;;;;5031850;28;20033;-71
2022/04/30 09:12:25;;;;;;;4.93;2.10;;;12.00;95.10;;;;;;5019879;28;20253;-71
2022/04/30 09:14:51;;;;;;;4.15;1.77;;;12.00;94.60;;;;;;5031405;28;20021;-71
2022/04/30 09:17:17;;;;;;;3.13;1.60;;;12.00;94.10;;;;;;5012793;28;20091;-71
2022/04/30 09:19:59;;;;;;;2.60;1.65;;;12.00;94.50;;;;;;5017271;28;20032;-70
2022/04/30 09:22:30;;;;;;;6.03;1.90;;;12.00;94.50;;;;;;5035396;28;20029;-70
2022/04/30 09:24:57;;;;;;;2.33;1.25;;;12.00;93.60;;;;;;5033713;28;20033;-70
2022/04/30 09:27:23;;;;;;;3.08;1.13;;;12.00;93.40;;;;;;5033274;28;20033;-70
2022/04/30 09:29:49;;;;;;;2.78;1.55;;;12.10;92.40;;;;;;4996064;28;20090;-74
2022/04/30 09:32:23;;;;;;;2.33;1.50;;;12.10;92.50;;;;;;5035645;28;20102;-75
2022/04/30 09:37:41;;;;;;;4.18;1.60;;;12.20;92.20;;;;;;5030110;28;20096;-77
2022/04/30 09:40:16;;;;;;;2.75;1.75;;;12.40;91.10;;;;;;5037596;28;20040;-76
2022/04/30 09:42:44;;;;;;;5.28;1.80;;;12.40;91.70;;;;;;5030566;28;20032;-74
2022/04/30 09:45:26;;;;;;;3.40;1.90;;;12.50;92.10;;;;;;4995694;28;20063;-74
2022/04/30 09:47:53;;;;;;;4.90;2.20;;;12.60;91.60;;;;;;5036635;28;20029;-74
2022/04/30 09:55:56;;;;;;;2.97;1.95;;;12.80;90.80;;;;;;5034085;28;20103;-72
2022/04/30 09:58:26;;;;;;;3.47;2.03;;;12.80;90.90;;;;;;5018707;28;20029;-72
2022/04/30 10:00:55;;;;;;;4.38;2.00;;;12.80;91.00;;;;;;5013684;28;20033;-73
2022/04/30 10:03:42;;;;;;;2.60;1.70;;;12.80;90.90;;;;;;5036632;28;20507;-73
2022/04/30 10:06:08;;;;;;;2.88;1.58;;;12.90;90.60;;;;;;5033662;28;20076;-73
2022/04/30 10:08:39;;;;;;;3.38;2.20;;;12.90;89.20;;;;;;5011013;28;20029;-72
2022/04/30 10:11:32;;;;;;;3.75;2.08;;;13.00;89.90;;;;;;5004475;28;20412;-72
2022/04/30 10:14:36;;;;;;;4.32;2.05;;;13.10;89.30;;;;;;5038110;28;20033;-72
2022/04/30 10:19:41;;;;;;;4.30;1.77;;;13.20;88.10;;;;;;5035279;28;20556;-72
2022/04/30 10:22:17;;;;;;;4.05;2.15;;;13.30;86.20;;;;;;5014324;28;20083;-73
2022/04/30 10:24:53;;;;;;;3.28;2.03;;;13.40;82.90;;;;;;5013759;28;20038;-74
2022/04/30 10:27:19;;;;;;;7.32;1.75;;;13.60;81.70;;;;;;5023945;28;20039;-75
2022/04/30 10:29:56;;;;;;;4.30;1.42;;;13.60;79.20;;;;;;4994001;28;20163;-75
2022/04/30 10:32:32;;;;;;;4.43;2.03;;;13.50;81.40;;;;;;5009316;28;20029;-74
2022/04/30 10:34:59;;;;;;;2.75;1.50;;;13.50;81.80;;;;;;5022450;28;20030;-73
2022/04/30 10:37:29;;;;;;;3.03;1.52;;;13.60;80.30;;;;;;4994278;28;20036;-73
2022/04/30 10:39:59;;;;;;;3.00;1.65;;;13.60;78.30;;;;;;5028611;28;20043;-72
2022/04/30 10:42:32;;;;;;;3.55;1.80;;;13.50;78.70;;;;;;5006824;28;20094;-73
2022/04/30 10:44:58;;;;;;;4.90;2.08;;;13.60;78.20;;;;;;4992738;28;20025;-73
2022/04/30 10:47:24;;;;;;;2.22;1.73;;;13.70;77.70;;;;;;5026584;28;20052;-73
2022/04/30 10:49:50;;;;;;;3.67;1.70;;;13.80;76.70;;;;;;5029977;28;20041;-73
2022/04/30 10:52:25;;;;;;;3.03;2.10;;;13.80;77.90;;;;;;5009646;28;20039;-75
2022/04/30 10:54:54;;;;;;;7.18;2.05;;;14.00;78.60;;;;;;5008159;28;20034;-75
2022/04/30 10:57:21;;;;;;;8.82;2.72;;;14.20;78.30;;;;;;5030157;28;20041;-74
2022/04/30 10:59:58;;;;;;;6.05;2.60;;;14.40;78.60;;;;;;5009326;28;20361;-75
2022/04/30 11:02:30;;;;;;;31.75;5.72;;;14.60;77.30;;;;;;5030699;28;20561;-75
2022/04/30 11:04:55;;;;;;;6.03;2.35;;;14.80;76.90;;;;;;5007240;28;20056;-70
2022/04/30 11:07:21;;;;;;;6.10;2.38;;;15.10;75.20;;;;;;5002493;28;20029;-71
2022/04/30 11:09:47;;;;;;;4.18;1.73;;;15.80;74.50;;;;;;5013445;28;20029;-75
2022/04/30 11:12:14;;;;;;;4.22;2.42;;;17.20;74.50;;;;;;5031152;28;20605;-71
2022/04/30 11:14:43;;;;;;;5.00;2.47;;;18.90;70.90;;;;;;5030883;28;20029;-70
2022/04/30 11:17:08;;;;;;;5.70;2.50;;;19.80;63.80;;;;;;5016458;28;20132;-71
2022/04/30 11:19:41;;;;;;;4.35;2.28;;;20.10;60.00;;;;;;5033518;28;20450;-71
2022/04/30 11:22:09;;;;;;;5.32;2.03;;;19.30;57.50;;;;;;5019001;28;20061;-73
2022/04/30 11:24:39;;;;;;;4.78;1.63;;;18.50;58.60;;;;;;4991942;28;20827;-76
2022/04/30 11:27:08;;;;;;;4.03;1.90;;;17.70;60.00;;;;;;5033106;28;20032;-71
2022/04/30 11:29:36;;;;;;;3.85;2.20;;;17.20;61.20;;;;;;5007404;28;20041;-72
2022/04/30 11:32:03;;;;;;;4.72;2.10;;;16.90;62.20;;;;;;5009262;28;20022;-71
2022/04/30 11:34:30;;;;;;;6.28;2.40;;;16.50;62.10;;;;;;5020383;28;20029;-73
2022/04/30 11:37:00;;;;;;;3.28;2.20;;;16.30;62.00;;;;;;5006651;28;20079;-72
2022/04/30 11:39:27;;;;;;;5.03;2.20;;;16.10;62.60;;;;;;5012655;28;20078;-72
2022/04/30 11:41:55;;;;;;;3.50;1.90;;;16.00;63.20;;;;;;5007413;28;20029;-71
2022/04/30 11:44:26;;;;;;;3.53;2.42;;;16.00;63.70;;;;;;5011894;28;20501;-69
2022/04/30 11:46:53;;;;;;;5.38;2.40;;;16.30;65.30;;;;;;5010762;28;20041;-70
2022/04/30 11:49:23;;;;;;;4.50;2.97;;;16.60;64.30;;;;;;4996640;28;20034;-70
2022/04/30 11:51:51;;;;;;;4.55;2.30;;;16.50;64.50;;;;;;5006525;28;20626;-69
2022/04/30 11:54:25;;;;;;;2.92;2.03;;;16.30;63.40;;;;;;5025326;28;20088;-69
2022/04/30 11:56:52;;;;;;;3.60;2.40;;;16.10;63.80;;;;;;5025121;28;20156;-68
2022/04/30 11:59:37;;;;;;;2.28;1.38;;;15.90;61.40;;;;;;5025879;28;20490;-70
2022/04/30 12:02:09;;;;;;;4.20;1.90;;;15.80;61.30;;;;;;5021593;28;20029;-71
2022/04/30 12:04:36;;;;;;;5.07;1.83;;;15.70;61.20;;;;;;5022959;28;20029;-70
2022/04/30 12:07:07;;;;;;;1.85;1.38;;;15.60;59.50;;;;;;5008192;28;20439;-71
2022/04/30 12:09:37;;;;;;;3.75;1.98;;;15.60;60.60;;;;;;5018513;28;20993;-70
2022/04/30 12:12:17;;;;;;;2.95;1.42;;;15.70;59.80;;;;;;5023612;28;20090;-71
2022/04/30 12:14:47;;;;;;;3.30;1.98;;;15.70;59.10;;;;;;5002432;28;20030;-70
2022/04/30 12:17:13;;;;;;;3.85;1.90;;;15.70;58.90;;;;;;5028158;28;20071;-69
2022/04/30 12:25:16;;;;;;;3.08;1.75;;;16.10;60.50;;;;;;5035794;28;20507;-71
2022/04/30 12:27:53;;;;;;;6.43;2.33;;;16.40;61.30;;;;;;5008072;28;20033;-71
2022/04/30 12:30:20;;;;;;;4.15;2.55;;;16.50;60.40;;;;;;5027699;28;20531;-70
2022/04/30 12:32:58;;;;;;;6.47;2.38;;;16.30;62.20;;;;;;5010341;28;20029;-70
2022/04/30 12:35:33;;;;;;;4.10;2.60;;;16.20;63.60;;;;;;5027635;28;20029;-71
2022/04/30 12:38:05;;;;;;;4.32;2.55;;;16.00;64.80;;;;;;5006217;28;20041;-70
2022/04/30 12:40:33;;;;;;;3.80;2.50;;;15.80;65.60;;;;;;5029171;28;20033;-70
2022/04/30 12:42:59;;;;;;;4.35;2.40;;;15.80;65.90;;;;;;5027221;28;20033;-69
2022/04/30 12:45:25;;;;;;;4.85;2.70;;;15.70;66.30;;;;;;4986685;28;20956;-70
2022/04/30 12:47:52;;;;;;;4.80;2.88;;;15.60;66.40;;;;;;5024346;28;20592;-71
2022/04/30 12:50:18;;;;;;;8.30;3.00;;;15.80;66.60;;;;;;5018735;28;20033;-70
2022/04/30 12:52:44;;;;;;;6.47;2.50;;;16.10;65.30;;;;;;5041600;28;20092;-69
2022/04/30 12:55:11;;;;;;;4.13;2.33;;;16.40;65.30;;;;;;5038340;28;20078;-71
2022/04/30 12:57:38;;;;;;;4.60;2.72;;;16.60;64.00;;;;;;5019499;28;20567;-71
2022/04/30 13:00:05;;;;;;;3.92;2.17;;;16.80;63.60;;;;;;5040857;28;20040;-71
2022/04/30 13:02:33;;;;;;;3.78;2.13;;;16.80;63.40;;;;;;5034569;28;20231;-69
2022/04/30 13:04:59;;;;;;;3.97;2.00;;;16.80;62.60;;;;;;5034977;28;20040;-71
2022/04/30 13:07:25;;;;;;;5.53;2.10;;;16.80;63.00;;;;;;5024456;28;20072;-70
2022/04/30 13:15:19;;;;;;;3.10;2.33;;;16.50;62.60;;;;;;5025749;28;20040;-71
2022/04/30 13:17:44;;;;;;;6.18;2.20;;;16.30;63.00;;;;;;5027774;28;20029;-70
2022/04/30 13:20:11;;;;;;;5.18;2.00;;;16.40;62.50;;;;;;5027078;28;20034;-70
2022/04/30 13:22:38;;;;;;;4.55;2.28;;;16.50;63.00;;;;;;5026372;28;20168;-70
2022/04/30 13:25:04;;;;;;;4.28;1.98;;;16.60;62.50;;;;;;5034509;28;20492;-70
2022/04/30 13:27:31;;;;;;;5.75;2.28;;;16.70;61.20;;;;;;5010064;28;20646;-71
2022/04/30 13:29:57;;;;;;;6.88;2.40;;;16.80;61.00;;;;;;5014551;28;20029;-70
2022/04/30 13:32:22;;;;;;;3.53;2.00;;;16.80;61.80;;;;;;5029869;28;21108;-71
2022/04/30 13:34:48;;;;;;;4.05;2.50;;;16.70;61.30;;;;;;5012297;28;20157;-71
2022/04/30 13:37:14;;;;;;;3.35;2.03;;;16.50;61.30;;;;;;5017051;28;20370;-73
2022/04/30 13:39:39;;;;;;;3.20;2.08;;;16.40;62.40;;;;;;5035012;28;20041;-70